createdAt,value
2022-11-18T00:00:11.789Z,99.05
2022-11-18T00:01:11.786Z,99.16
2022-11-18T00:02:11.815Z,99.16
2022-11-18T00:03:11.775Z,99.16
2022-11-18T00:04:11.731Z,99.16
2022-11-18T00:05:11.741Z,99.16
2022-11-18T00:06:11.712Z,99.16
2022-11-18T00:07:11.750Z,99.16
2022-11-18T00:08:11.689Z,99.16
2022-11-18T00:09:11.670Z,99.16
2022-11-18T00:10:11.668Z,99.16
2022-11-18T00:11:11.656Z,99.16
2022-11-18T00:12:11.631Z,99.16
2022-11-18T00:13:11.636Z,99.16
2022-11-18T00:14:11.603Z,99.05
2022-11-18T00:15:11.615Z,99.05
2022-11-18T00:16:11.572Z,99.05
2022-11-18T00:17:11.573Z,99.10
2022-11-18T00:18:11.572Z,99.10
2022-11-18T00:19:11.643Z,99.10
2022-11-18T00:20:11.572Z,99.10
2022-11-18T00:21:11.512Z,99.10
2022-11-18T00:22:11.563Z,99.00
2022-11-18T00:23:11.496Z,99.10
2022-11-18T00:24:11.571Z,99.10
2022-11-18T00:25:11.513Z,99.00
2022-11-18T00:26:11.443Z,99.10
2022-11-18T00:27:13.473Z,99.00
2022-11-18T00:28:11.494Z,99.05
2022-11-18T00:29:11.416Z,99.05
2022-11-18T00:30:11.442Z,99.05
2022-11-18T00:31:11.413Z,99.05
2022-11-18T00:32:11.374Z,99.05
2022-11-18T00:33:12.467Z,99.05
2022-11-18T00:34:11.438Z,99.15
2022-11-18T00:35:11.343Z,99.19
2022-11-18T00:36:11.342Z,99.19
2022-11-18T00:37:11.307Z,99.30
2022-11-18T00:38:11.318Z,99.30
2022-11-18T00:39:11.285Z,99.40
2022-11-18T00:40:11.273Z,99.40
2022-11-18T00:41:11.273Z,99.40
2022-11-18T00:42:11.246Z,99.51
2022-11-18T00:43:11.252Z,99.51
2022-11-18T00:44:11.217Z,99.51
2022-11-18T00:45:11.206Z,99.51
2022-11-18T00:46:11.205Z,99.51
2022-11-18T00:47:11.176Z,99.51
2022-11-18T00:48:11.168Z,99.60
2022-11-18T00:49:11.166Z,99.60
2022-11-18T00:50:11.177Z,99.60
2022-11-18T00:51:11.146Z,99.60
2022-11-18T00:52:11.118Z,99.60
2022-11-18T00:53:11.119Z,99.60
2022-11-18T00:54:11.096Z,99.60
2022-11-18T00:55:11.092Z,99.71
2022-11-18T00:56:11.078Z,99.71
2022-11-18T00:57:11.075Z,99.71
2022-11-18T00:58:11.047Z,99.71
2022-11-18T00:59:11.028Z,99.71
2022-11-18T01:00:11.016Z,99.71
2022-11-18T01:01:11.043Z,99.71
2022-11-18T01:02:10.999Z,99.71
2022-11-18T01:03:10.985Z,99.81
2022-11-18T01:04:10.964Z,99.81
2022-11-18T01:05:10.957Z,99.81
2022-11-18T01:06:10.957Z,99.81
2022-11-18T01:07:10.966Z,99.81
2022-11-18T01:08:10.917Z,99.81
2022-11-18T01:09:10.898Z,99.81
2022-11-18T01:10:10.888Z,99.91
2022-11-18T01:11:10.901Z,99.91
2022-11-18T01:12:10.856Z,99.86
2022-11-18T01:13:10.850Z,99.86
2022-11-18T01:14:10.830Z,99.86
2022-11-18T01:15:10.924Z,99.96
2022-11-18T01:16:10.906Z,99.96
2022-11-18T01:17:10.860Z,99.96
2022-11-18T01:18:10.789Z,99.96
2022-11-18T01:19:10.831Z,99.96
2022-11-18T01:20:10.830Z,99.96
2022-11-18T01:21:10.862Z,99.96
2022-11-18T01:22:10.741Z,99.86
2022-11-18T01:23:10.772Z,99.86
2022-11-18T01:24:10.752Z,99.90
2022-11-18T01:25:10.695Z,99.90
2022-11-18T01:26:10.671Z,99.80
2022-11-18T01:27:10.682Z,99.80
2022-11-18T01:28:10.681Z,99.80
2022-11-18T01:29:10.645Z,99.70
2022-11-18T01:30:10.692Z,99.70
2022-11-18T01:31:10.712Z,99.74
2022-11-18T01:32:24.550Z,99.74
2022-11-18T01:33:11.603Z,99.74
2022-11-18T01:34:10.583Z,99.74
2022-11-18T01:35:10.645Z,99.74
2022-11-18T01:36:10.561Z,99.74
2022-11-18T01:37:10.544Z,99.74
2022-11-18T01:38:10.522Z,99.74
2022-11-18T01:39:10.579Z,99.85
2022-11-18T01:40:10.499Z,99.85
2022-11-18T01:41:10.572Z,99.85
2022-11-18T01:42:10.486Z,99.85
2022-11-18T01:43:10.462Z,99.79
2022-11-18T01:44:10.453Z,99.90
2022-11-18T01:45:10.502Z,99.79
2022-11-18T01:46:10.497Z,99.79
2022-11-18T01:47:10.432Z,99.79
2022-11-18T01:48:10.394Z,99.79
2022-11-18T01:49:10.383Z,99.79
2022-11-18T01:50:11.458Z,99.84
2022-11-18T01:51:10.433Z,99.79
2022-11-18T01:52:10.447Z,99.94
2022-11-18T01:53:10.393Z,99.90
2022-11-18T01:54:10.352Z,99.90
2022-11-18T01:55:10.324Z,99.99
2022-11-18T01:56:10.362Z,99.99
2022-11-18T01:57:10.295Z,99.99
2022-11-18T01:58:10.272Z,99.99
2022-11-18T01:59:10.285Z,99.99
2022-11-18T02:00:10.285Z,99.99
2022-11-18T02:01:11.384Z,99.99
2022-11-18T02:02:10.303Z,99.99
2022-11-18T02:03:10.235Z,99.99
2022-11-18T02:04:32.188Z,99.99
2022-11-18T02:05:10.175Z,99.99
2022-11-18T02:06:10.234Z,99.99
2022-11-18T02:07:10.320Z,99.99
2022-11-18T02:08:10.177Z,99.99
2022-11-18T02:09:10.145Z,99.99
2022-11-18T02:10:10.116Z,99.99
2022-11-18T02:11:10.158Z,99.99
2022-11-18T02:12:10.229Z,99.99
2022-11-18T02:13:10.106Z,99.99
2022-11-18T02:14:10.086Z,99.99
2022-11-18T02:15:10.078Z,99.99
2022-11-18T02:16:10.110Z,99.99
2022-11-18T02:17:10.106Z,99.99
2022-11-18T02:18:10.046Z,99.99
2022-11-18T02:19:10.010Z,99.99
2022-11-18T02:20:09.985Z,99.99
2022-11-18T02:21:33.097Z,99.99
2022-11-18T02:22:10.047Z,99.99
2022-11-18T02:23:09.976Z,99.99
2022-11-18T02:24:09.946Z,99.99
2022-11-18T02:25:09.937Z,99.99
2022-11-18T02:26:09.958Z,99.99
2022-11-18T02:27:11.947Z,99.99
2022-11-18T02:28:09.905Z,99.99
2022-11-18T02:29:09.888Z,99.99
2022-11-18T02:30:09.889Z,99.96
2022-11-18T02:31:09.903Z,99.96
2022-11-18T02:32:09.899Z,99.86
2022-11-18T02:33:09.830Z,99.76
2022-11-18T02:34:09.807Z,99.65
2022-11-18T02:35:09.818Z,99.65
2022-11-18T02:36:09.819Z,99.65
2022-11-18T02:37:09.831Z,99.55
2022-11-18T02:38:09.871Z,99.44
2022-11-18T02:39:10.774Z,99.49
2022-11-18T02:40:09.753Z,99.49
2022-11-18T02:41:09.760Z,99.39
2022-11-18T02:42:09.771Z,99.39
2022-11-18T02:43:09.799Z,99.39
2022-11-18T02:44:09.786Z,99.29
2022-11-18T02:45:09.670Z,99.33
2022-11-18T02:46:09.640Z,99.33
2022-11-18T02:47:09.700Z,99.33
2022-11-18T02:48:09.728Z,99.23
2022-11-18T02:49:09.609Z,99.23
2022-11-18T02:50:09.613Z,99.23
2022-11-18T02:51:17.108Z,99.23
2022-11-18T02:52:09.633Z,99.27
2022-11-18T02:53:09.668Z,99.27
2022-11-18T02:54:09.631Z,99.27
2022-11-18T02:55:09.548Z,99.27
2022-11-18T02:56:09.529Z,99.38
2022-11-18T02:57:09.561Z,99.38
2022-11-18T02:58:09.610Z,99.48
2022-11-18T02:59:09.592Z,99.58
2022-11-18T03:00:09.580Z,99.64
2022-11-18T03:01:09.506Z,99.74
2022-11-18T03:02:09.501Z,99.85
2022-11-18T03:03:10.550Z,99.95
2022-11-18T03:04:10.422Z,99.99
2022-11-18T03:05:09.524Z,99.99
2022-11-18T03:06:09.423Z,99.99
2022-11-18T03:07:09.460Z,99.99
2022-11-18T03:08:09.433Z,99.99
2022-11-18T03:09:09.364Z,99.99
2022-11-18T03:10:09.344Z,99.99
2022-11-18T03:11:09.338Z,99.99
2022-11-18T03:12:09.361Z,99.99
2022-11-18T03:13:09.305Z,99.99
2022-11-18T03:14:09.293Z,99.99
2022-11-18T03:15:10.293Z,99.99
2022-11-18T03:16:09.285Z,99.99
2022-11-18T03:17:09.304Z,99.99
2022-11-18T03:18:09.283Z,99.99
2022-11-18T03:19:09.231Z,99.99
2022-11-18T03:20:09.321Z,99.99
2022-11-18T03:21:09.219Z,99.99
2022-11-18T03:22:09.185Z,99.99
2022-11-18T03:23:09.233Z,99.99
2022-11-18T03:24:09.256Z,99.99
2022-11-18T03:25:09.239Z,99.99
2022-11-18T03:26:30.262Z,99.99
2022-11-18T03:27:09.124Z,99.99
2022-11-18T03:28:09.153Z,99.99
2022-11-18T03:29:09.186Z,99.99
2022-11-18T03:30:09.175Z,99.99
2022-11-18T03:31:09.189Z,99.99
2022-11-18T03:32:09.207Z,99.99
2022-11-18T03:33:09.086Z,99.99
2022-11-18T03:34:09.126Z,99.99
2022-11-18T03:35:09.096Z,99.99
2022-11-18T03:36:09.115Z,99.99
2022-11-18T03:37:10.627Z,99.99
2022-11-18T03:38:08.976Z,99.99
2022-11-18T03:39:09.055Z,99.99
2022-11-18T03:40:09.045Z,99.99
2022-11-18T03:41:09.035Z,99.99
2022-11-18T03:42:08.935Z,99.99
2022-11-18T03:43:08.906Z,99.99
2022-11-18T03:44:09.011Z,99.99
2022-11-18T03:45:08.877Z,99.99
2022-11-18T03:46:08.878Z,99.99
2022-11-18T03:47:08.885Z,99.99
2022-11-18T03:48:08.905Z,99.99
2022-11-18T03:49:08.849Z,99.99
2022-11-18T03:50:08.815Z,99.96
2022-11-18T04:03:09.951Z,99.91
2022-11-18T04:04:09.938Z,99.91
2022-11-18T04:05:09.908Z,99.81
2022-11-18T04:06:09.927Z,99.81
2022-11-18T04:07:09.949Z,99.81
2022-11-18T04:08:09.948Z,99.66
2022-11-18T04:09:09.986Z,99.66
2022-11-18T04:10:09.839Z,99.66
2022-11-18T04:11:09.847Z,99.56
2022-11-18T04:12:09.832Z,99.56
2022-11-18T04:13:09.908Z,99.46
2022-11-18T04:14:09.918Z,99.46
2022-11-18T04:15:09.779Z,99.35
2022-11-18T04:16:09.816Z,99.25
2022-11-18T04:17:09.757Z,99.25
2022-11-18T04:18:09.808Z,99.19
2022-11-18T04:19:09.823Z,99.19
2022-11-18T04:20:09.766Z,99.09
2022-11-18T04:21:09.730Z,99.09
2022-11-18T04:22:09.690Z,99.09
2022-11-18T04:23:09.697Z,99.09
2022-11-18T04:24:09.658Z,99.09
2022-11-18T04:25:10.881Z,99.09
2022-11-18T04:26:09.659Z,99.09
2022-11-18T04:27:09.668Z,99.19
2022-11-18T04:28:09.753Z,99.09
2022-11-18T04:29:09.598Z,99.09
2022-11-18T04:30:09.645Z,99.19
2022-11-18T04:31:10.632Z,99.19
2022-11-18T04:32:09.598Z,99.19
2022-11-18T04:33:09.600Z,99.09
2022-11-18T04:34:09.616Z,99.14
2022-11-18T04:35:09.533Z,99.24
2022-11-18T04:36:09.501Z,99.24
2022-11-18T04:37:10.561Z,99.24
2022-11-18T04:38:09.534Z,99.24
2022-11-18T04:39:09.542Z,99.24
2022-11-18T04:40:09.478Z,99.34
2022-11-18T04:41:09.451Z,99.34
2022-11-18T04:42:09.463Z,99.30
2022-11-18T04:43:10.493Z,99.40
2022-11-18T04:44:09.485Z,99.40
2022-11-18T04:45:09.401Z,99.40
2022-11-18T04:46:09.386Z,99.40
2022-11-18T04:47:09.372Z,99.40
2022-11-18T04:48:09.351Z,99.51
2022-11-18T04:49:09.368Z,99.51
2022-11-18T04:50:09.323Z,99.51
2022-11-18T04:51:09.332Z,99.51
2022-11-18T04:52:10.293Z,99.55
2022-11-18T04:53:09.369Z,99.51
2022-11-18T04:54:09.271Z,99.60
2022-11-18T04:55:09.271Z,99.51
2022-11-18T04:56:09.248Z,99.51
2022-11-18T04:57:09.251Z,99.60
2022-11-18T04:58:09.223Z,99.55
2022-11-18T04:59:09.203Z,99.51
2022-11-18T05:00:09.204Z,99.51
2022-11-18T05:01:09.224Z,99.51
2022-11-18T05:02:10.174Z,99.51
2022-11-18T05:03:09.155Z,99.51
2022-11-18T05:04:09.155Z,99.51
2022-11-18T05:05:09.160Z,99.51
2022-11-18T05:06:09.124Z,99.51
2022-11-18T05:07:10.158Z,99.51
2022-11-18T05:08:09.096Z,99.40
2022-11-18T05:09:09.098Z,99.40
2022-11-18T05:10:09.073Z,99.44
2022-11-18T05:11:09.051Z,99.44
2022-11-18T05:12:10.036Z,99.44
2022-11-18T05:13:09.055Z,99.44
2022-11-18T05:14:09.029Z,99.44
2022-11-18T05:15:09.034Z,99.34
2022-11-18T05:16:09.019Z,99.34
2022-11-18T05:17:09.000Z,99.34
2022-11-18T05:18:10.016Z,99.34
2022-11-18T05:19:08.972Z,99.44
2022-11-18T05:20:08.935Z,99.34
2022-11-18T05:21:09.929Z,99.44
2022-11-18T05:22:08.927Z,99.44
2022-11-18T05:23:08.897Z,99.44
2022-11-18T05:24:08.875Z,99.44
2022-11-18T05:25:08.855Z,99.55
2022-11-18T05:26:08.867Z,99.55
2022-11-18T05:27:08.839Z,99.55
2022-11-18T05:28:08.827Z,99.55
2022-11-18T05:29:08.808Z,99.55
2022-11-18T05:30:08.799Z,99.65
2022-11-18T05:31:08.798Z,99.65
2022-11-18T05:32:08.778Z,99.65
2022-11-18T05:33:08.759Z,99.65
2022-11-18T05:34:08.749Z,99.65
2022-11-18T05:35:08.735Z,99.65
2022-11-18T05:36:08.740Z,99.65
2022-11-18T05:37:08.710Z,99.65
2022-11-18T05:38:08.699Z,99.65
2022-11-18T05:39:08.691Z,99.65
2022-11-18T05:40:08.679Z,99.65
2022-11-18T05:41:08.666Z,99.65
2022-11-18T05:42:08.645Z,99.65
2022-11-18T05:43:08.652Z,99.65
2022-11-18T05:44:08.641Z,99.65
2022-11-18T05:45:08.588Z,99.65
2022-11-18T05:46:08.617Z,99.65
2022-11-18T05:47:08.578Z,99.65
2022-11-18T05:48:08.609Z,99.65
2022-11-18T05:49:08.569Z,99.65
2022-11-18T05:50:08.542Z,99.65
2022-11-18T05:51:08.548Z,99.65
2022-11-18T05:52:08.517Z,99.65
2022-11-18T05:53:08.511Z,99.65
2022-11-18T05:54:08.520Z,99.65
2022-11-18T05:55:08.473Z,99.65
2022-11-18T05:56:08.471Z,99.65
2022-11-18T05:57:08.449Z,99.65
2022-11-18T05:58:08.430Z,99.65
2022-11-18T05:59:08.471Z,99.65
2022-11-18T06:00:08.420Z,99.65
2022-11-18T06:01:08.426Z,99.65
2022-11-18T06:02:08.381Z,99.65
2022-11-18T06:03:08.420Z,99.65
2022-11-18T06:04:08.359Z,99.65
2022-11-18T06:05:08.330Z,99.65
2022-11-18T06:06:08.369Z,99.65
2022-11-18T06:07:08.344Z,99.76
2022-11-18T06:08:08.299Z,99.76
2022-11-18T06:09:08.271Z,99.76
2022-11-18T06:10:08.270Z,99.76
2022-11-18T06:11:08.262Z,99.76
2022-11-18T06:12:08.250Z,99.71
2022-11-18T06:13:08.221Z,99.71
2022-11-18T06:14:08.221Z,99.71
2022-11-18T06:15:08.203Z,99.71
2022-11-18T06:16:08.211Z,99.65
2022-11-18T06:17:08.178Z,99.65
2022-11-18T06:18:08.161Z,99.65
2022-11-18T06:19:08.139Z,99.65
2022-11-18T06:20:08.142Z,99.65
2022-11-18T06:21:08.144Z,99.55
2022-11-18T06:22:08.116Z,99.65
2022-11-18T06:23:08.092Z,99.55
2022-11-18T06:24:08.092Z,99.60
2022-11-18T06:25:08.063Z,99.60
2022-11-18T06:26:08.072Z,99.51
2022-11-18T06:27:08.031Z,99.51
2022-11-18T06:28:08.032Z,99.51
2022-11-18T06:29:08.016Z,99.51
2022-11-18T06:30:08.021Z,99.51
2022-11-18T06:31:08.004Z,99.51
2022-11-18T06:32:07.981Z,99.51
2022-11-18T06:33:07.950Z,99.51
2022-11-18T06:34:07.955Z,99.51
2022-11-18T06:35:07.925Z,99.51
2022-11-18T06:36:07.934Z,99.51
2022-11-18T06:37:07.905Z,99.51
2022-11-18T06:38:07.899Z,99.60
2022-11-18T06:39:07.884Z,99.60
2022-11-18T06:40:07.866Z,99.60
2022-11-18T06:41:07.864Z,99.60
2022-11-18T06:42:07.855Z,99.51
2022-11-18T06:43:07.824Z,99.51
2022-11-18T06:44:07.816Z,99.40
2022-11-18T06:45:07.837Z,99.40
2022-11-18T06:46:09.341Z,99.40
2022-11-18T06:47:07.775Z,99.40
2022-11-18T06:48:07.772Z,99.44
2022-11-18T06:49:07.742Z,99.40
2022-11-18T06:50:07.748Z,99.40
2022-11-18T06:51:07.734Z,99.40
2022-11-18T06:52:07.724Z,99.51
2022-11-18T06:53:07.684Z,99.51
2022-11-18T06:54:10.862Z,99.51
2022-11-18T06:55:07.680Z,99.51
2022-11-18T06:56:07.704Z,99.51
2022-11-18T06:57:07.636Z,99.51
2022-11-18T06:58:07.648Z,99.51
2022-11-18T06:59:07.608Z,99.51
2022-11-18T07:00:07.596Z,99.51
2022-11-18T07:01:07.636Z,99.51
2022-11-18T07:02:07.576Z,99.51
2022-11-18T07:03:07.557Z,99.51
2022-11-18T07:04:07.570Z,99.40
2022-11-18T07:05:07.518Z,99.51
2022-11-18T07:06:07.527Z,99.51
2022-11-18T07:07:07.608Z,99.40
2022-11-18T07:08:07.488Z,99.40
2022-11-18T07:09:07.472Z,99.40
2022-11-18T07:10:07.456Z,99.40
2022-11-18T07:11:07.464Z,99.40
2022-11-18T07:12:07.447Z,99.40
2022-11-18T07:13:07.415Z,99.40
2022-11-18T07:14:07.430Z,99.40
2022-11-18T07:15:07.397Z,99.40
2022-11-18T07:16:07.414Z,99.40
2022-11-18T07:17:07.365Z,99.40
2022-11-18T07:18:07.377Z,99.40
2022-11-18T07:19:07.346Z,99.40
2022-11-18T07:20:07.332Z,99.40
2022-11-18T07:21:07.328Z,99.40
2022-11-18T07:22:07.355Z,99.40
2022-11-18T07:23:07.278Z,99.40
2022-11-18T07:24:07.281Z,99.40
2022-11-18T07:25:07.260Z,99.51
2022-11-18T07:26:07.269Z,99.40
2022-11-18T07:27:07.238Z,99.40
2022-11-18T07:28:07.225Z,99.51
2022-11-18T07:29:07.210Z,99.51
2022-11-18T07:30:07.198Z,99.51
2022-11-18T07:31:07.180Z,99.60
2022-11-18T07:32:07.197Z,99.51
2022-11-18T07:33:07.168Z,99.60
2022-11-18T07:34:07.146Z,99.60
2022-11-18T07:35:07.127Z,99.56
2022-11-18T07:36:07.140Z,99.60
2022-11-18T07:37:07.100Z,99.60
2022-11-18T07:38:07.080Z,99.60
2022-11-18T07:39:07.080Z,99.51
2022-11-18T07:40:07.067Z,99.60
2022-11-18T07:41:07.041Z,99.60
2022-11-18T07:42:07.066Z,99.60
2022-11-18T07:43:07.036Z,99.60
2022-11-18T07:44:07.013Z,99.60
2022-11-18T07:45:06.991Z,99.60
2022-11-18T07:46:06.979Z,99.60
2022-11-18T07:47:07.038Z,99.56
2022-11-18T07:48:06.971Z,99.60
2022-11-18T07:49:06.963Z,99.60
2022-11-18T07:50:06.954Z,99.56
2022-11-18T07:51:06.911Z,99.56
2022-11-18T07:52:06.932Z,99.60
2022-11-18T07:53:06.889Z,99.60
2022-11-18T07:54:06.933Z,99.60
2022-11-18T07:55:06.875Z,99.60
2022-11-18T07:56:06.861Z,99.60
2022-11-18T07:57:06.852Z,99.60
2022-11-18T07:58:06.850Z,99.60
2022-11-18T07:59:06.824Z,99.60
2022-11-18T08:00:06.795Z,99.71
2022-11-18T08:01:06.798Z,99.71
2022-11-18T08:02:06.888Z,99.71
2022-11-18T08:03:06.763Z,99.71
2022-11-18T08:04:06.764Z,99.77
2022-11-18T08:05:06.777Z,99.77
2022-11-18T08:06:06.705Z,99.56
2022-11-18T08:07:06.727Z,99.56
2022-11-18T08:08:06.683Z,99.56
2022-11-18T08:09:06.683Z,99.56
2022-11-18T08:10:06.652Z,99.35
2022-11-18T08:11:06.645Z,99.25
2022-11-18T08:12:06.653Z,99.15
2022-11-18T08:13:06.620Z,99.15
2022-11-18T08:14:06.605Z,99.25
2022-11-18T08:15:06.615Z,99.21
2022-11-18T08:16:06.573Z,99.21
2022-11-18T08:17:06.582Z,99.00
2022-11-18T08:18:10.960Z,99.00
2022-11-18T08:19:07.553Z,98.90
2022-11-18T08:20:06.524Z,98.90
2022-11-18T08:21:06.532Z,98.79
2022-11-18T08:22:06.589Z,98.69
2022-11-18T08:23:06.516Z,98.69
2022-11-18T08:24:06.536Z,98.63
2022-11-18T08:25:06.476Z,98.63
2022-11-18T08:26:06.513Z,98.63
2022-11-18T08:27:06.447Z,98.63
2022-11-18T08:28:06.469Z,98.69
2022-11-18T08:29:06.461Z,98.79
2022-11-18T08:30:06.417Z,98.74
2022-11-18T08:31:06.407Z,98.74
2022-11-18T08:32:06.374Z,98.74
2022-11-18T08:33:06.415Z,98.84
2022-11-18T08:34:06.377Z,98.84
2022-11-18T08:35:10.838Z,98.74
2022-11-18T08:36:07.326Z,98.74
2022-11-18T08:37:06.318Z,98.74
2022-11-18T08:38:06.315Z,98.74
2022-11-18T08:39:06.307Z,98.74
2022-11-18T08:40:06.291Z,98.63
2022-11-18T08:41:06.255Z,98.63
2022-11-18T08:42:06.266Z,98.63
2022-11-18T08:43:06.236Z,98.74
2022-11-18T08:44:06.235Z,98.63
2022-11-18T08:45:06.217Z,98.53
2022-11-18T08:46:06.203Z,98.43
2022-11-18T08:47:06.195Z,98.33
2022-11-18T08:48:06.168Z,98.33
2022-11-18T08:49:06.146Z,98.43
2022-11-18T08:50:06.129Z,98.33
2022-11-18T08:51:13.671Z,98.22
2022-11-18T08:52:06.115Z,98.33
2022-11-18T08:53:06.122Z,98.33
2022-11-18T08:54:06.092Z,98.33
2022-11-18T08:55:06.076Z,98.33
2022-11-18T08:56:07.076Z,98.12
2022-11-18T08:57:06.049Z,98.22
2022-11-18T08:58:06.028Z,98.12
2022-11-18T08:59:06.018Z,98.12
2022-11-18T09:00:05.998Z,98.12
2022-11-18T09:01:27.043Z,98.22
2022-11-18T09:02:07.036Z,98.22
2022-11-18T09:03:05.987Z,98.33
2022-11-18T09:04:05.975Z,98.33
2022-11-18T09:05:05.937Z,98.33
2022-11-18T09:06:05.946Z,98.22
2022-11-18T09:07:05.972Z,98.22
2022-11-18T09:08:05.907Z,98.33
2022-11-18T09:09:18.529Z,98.27
2022-11-18T09:10:06.878Z,98.27
2022-11-18T09:11:05.856Z,98.27
2022-11-18T09:12:06.877Z,98.37
2022-11-18T09:13:32.774Z,98.47
2022-11-18T09:15:13.335Z,98.37
2022-11-18T09:16:06.798Z,98.37
2022-11-18T09:17:05.775Z,98.37
2022-11-18T09:18:05.788Z,98.27
2022-11-18T09:19:31.543Z,98.27
2022-11-18T09:20:07.738Z,98.22
2022-11-18T09:21:05.748Z,98.12
2022-11-18T09:22:06.729Z,98.12
2022-11-18T09:23:06.698Z,98.12
2022-11-18T09:24:05.691Z,98.22
2022-11-18T09:25:05.668Z,98.12
2022-11-18T09:26:05.659Z,98.02
2022-11-18T09:27:05.648Z,98.12
2022-11-18T09:28:05.651Z,97.96
2022-11-18T09:29:05.628Z,98.02
2022-11-18T09:30:05.600Z,98.12
2022-11-18T09:31:05.601Z,98.12
2022-11-18T09:32:05.606Z,98.22
2022-11-18T09:33:05.586Z,98.12
2022-11-18T09:34:05.561Z,97.81
2022-11-18T09:35:05.530Z,97.81
2022-11-18T09:36:05.547Z,97.81
2022-11-18T09:37:06.949Z,97.81
2022-11-18T09:38:05.520Z,97.91
2022-11-18T09:39:05.523Z,98.02
2022-11-18T09:40:05.481Z,98.02
2022-11-18T09:41:05.459Z,98.12
2022-11-18T09:42:06.472Z,98.02
2022-11-18T09:43:05.439Z,98.02
2022-11-18T09:44:05.420Z,98.12
2022-11-18T09:45:11.709Z,98.02
2022-11-18T09:46:06.437Z,98.12
2022-11-18T09:47:05.387Z,98.12
2022-11-18T10:03:44.337Z,98.02
2022-11-18T10:04:44.315Z,97.81
2022-11-18T10:05:44.297Z,97.61
2022-11-18T10:06:44.297Z,97.61
2022-11-18T10:07:44.345Z,97.71
2022-11-18T10:08:44.277Z,97.71
2022-11-18T10:09:44.279Z,97.81
2022-11-18T10:10:44.264Z,97.71
2022-11-18T10:11:49.015Z,97.81
2022-11-18T10:12:45.228Z,97.75
2022-11-18T10:13:44.247Z,97.75
2022-11-18T10:14:44.219Z,97.75
2022-11-18T10:15:44.216Z,97.75
2022-11-18T10:17:34.206Z,97.86
2022-11-18T10:19:35.189Z,97.75
2022-11-18T10:20:34.175Z,97.86
2022-11-18T10:21:34.147Z,97.75
2022-11-18T10:22:35.146Z,97.86
2022-11-18T10:23:34.138Z,97.96
2022-11-18T10:24:35.127Z,97.86
2022-11-18T10:25:34.097Z,97.86
2022-11-18T10:26:34.085Z,97.96
2022-11-18T10:27:34.067Z,98.06
2022-11-18T10:28:34.059Z,98.16
2022-11-18T10:29:34.067Z,98.27
2022-11-18T10:30:34.048Z,98.37
2022-11-18T10:31:34.018Z,98.37
2022-11-18T10:32:34.023Z,98.27
2022-11-18T10:33:33.990Z,98.27
2022-11-18T10:34:33.988Z,98.27
2022-11-18T10:35:33.977Z,98.27
2022-11-18T10:36:33.970Z,98.37
2022-11-18T10:38:05.750Z,98.27
2022-11-18T10:38:34.959Z,98.16
2022-11-18T10:39:33.920Z,98.16
2022-11-18T10:40:33.907Z,98.16
2022-11-18T10:41:33.895Z,98.27
2022-11-18T10:42:33.877Z,98.27
2022-11-18T10:43:33.886Z,98.27
2022-11-18T10:44:34.858Z,98.27
2022-11-18T10:45:33.828Z,98.27
2022-11-18T10:46:35.921Z,98.27
2022-11-18T10:47:33.821Z,98.16
2022-11-18T10:48:33.798Z,98.27
2022-11-18T10:49:33.790Z,98.27
2022-11-18T10:50:33.788Z,98.37
2022-11-18T10:51:34.760Z,98.37
2022-11-18T10:52:33.757Z,98.37
2022-11-18T10:53:34.768Z,98.58
2022-11-18T10:54:33.777Z,98.47
2022-11-18T10:55:34.700Z,98.47
2022-11-18T10:56:33.709Z,98.47
2022-11-18T10:57:33.699Z,98.47
2022-11-18T10:58:33.677Z,98.47
2022-11-18T10:59:33.659Z,98.58
2022-11-18T11:00:33.660Z,98.47
2022-11-18T11:01:33.637Z,98.58
2022-11-18T11:02:33.652Z,98.58
2022-11-18T11:03:33.602Z,98.58
2022-11-18T11:04:33.595Z,98.68
2022-11-18T11:05:33.579Z,98.58
2022-11-18T11:06:34.580Z,98.58
2022-11-18T11:07:33.600Z,98.58
2022-11-18T11:08:37.747Z,98.58
2022-11-18T11:09:33.528Z,98.53
2022-11-18T11:10:33.521Z,98.63
2022-11-18T11:11:33.486Z,98.63
2022-11-18T11:12:33.492Z,98.37
2022-11-18T11:13:33.477Z,98.47
2022-11-18T11:14:33.462Z,98.47
2022-11-18T11:15:33.464Z,98.47
2022-11-18T11:16:33.432Z,98.47
2022-11-18T11:17:34.457Z,98.58
2022-11-18T11:18:33.424Z,98.58
2022-11-18T11:19:33.428Z,98.47
2022-11-18T11:20:33.394Z,98.58
2022-11-18T11:21:34.382Z,98.58
2022-11-18T11:22:33.361Z,98.58
2022-11-18T11:23:33.348Z,98.58
2022-11-18T11:24:33.353Z,98.58
2022-11-18T11:28:34.316Z,98.47
2022-11-18T11:29:33.264Z,98.47
2022-11-18T11:30:33.263Z,98.47
2022-11-18T11:31:33.241Z,98.58
2022-11-18T11:32:33.225Z,98.68
2022-11-18T11:33:33.221Z,98.74
2022-11-18T11:34:33.204Z,98.74
2022-11-18T11:35:33.191Z,98.74
2022-11-18T11:36:33.172Z,98.74
2022-11-18T11:37:33.171Z,98.74
2022-11-18T11:38:34.143Z,98.84
2022-11-18T11:39:33.149Z,98.84
2022-11-18T11:40:33.135Z,98.84
2022-11-18T11:41:33.116Z,98.94
2022-11-18T11:42:33.095Z,98.84
2022-11-18T11:43:33.073Z,98.84
2022-11-18T11:44:33.073Z,98.84
2022-11-18T11:45:33.079Z,98.94
2022-11-18T11:46:34.035Z,98.94
2022-11-18T11:47:33.034Z,98.74
2022-11-18T11:48:33.003Z,98.74
2022-11-18T11:49:33.052Z,98.74
2022-11-18T11:50:32.992Z,98.74
2022-11-18T11:51:32.975Z,98.84
2022-11-18T11:52:32.967Z,98.84
2022-11-18T11:53:32.945Z,98.74
2022-11-18T11:54:32.944Z,98.84
2022-11-18T11:55:33.955Z,98.74
2022-11-18T11:56:32.915Z,98.63
2022-11-18T11:57:32.906Z,98.53
2022-11-18T11:58:32.876Z,98.43
2022-11-18T11:59:32.877Z,98.43
2022-11-18T12:00:32.866Z,98.53
2022-11-18T12:01:32.847Z,98.49
2022-11-18T12:02:32.855Z,98.49
2022-11-18T12:03:32.816Z,98.49
2022-11-18T12:04:32.809Z,98.59
2022-11-18T12:05:32.816Z,98.59
2022-11-18T12:06:32.779Z,98.59
2022-11-18T12:07:32.849Z,98.59
2022-11-18T12:08:32.756Z,98.59
2022-11-18T12:09:32.758Z,98.59
2022-11-18T12:10:33.728Z,98.59
2022-11-18T12:11:33.719Z,98.43
2022-11-18T12:12:32.697Z,98.38
2022-11-18T12:13:32.705Z,98.49
2022-11-18T12:14:37.100Z,98.49
2022-11-18T12:15:33.677Z,98.59
2022-11-18T12:16:32.658Z,98.38
2022-11-18T12:17:32.637Z,98.38
2022-11-18T12:18:32.634Z,98.38
2022-11-18T12:19:33.615Z,98.38
2022-11-18T12:20:32.627Z,98.38
2022-11-18T12:21:35.166Z,98.49
2022-11-18T12:22:32.568Z,98.49
2022-11-18T12:23:32.570Z,98.49
2022-11-18T12:24:32.572Z,98.49
2022-11-18T12:25:32.576Z,98.49
2022-11-18T12:26:32.519Z,98.59
2022-11-18T12:27:32.527Z,98.59
2022-11-18T12:28:32.527Z,98.69
2022-11-18T12:29:32.478Z,98.69
2022-11-18T12:30:32.479Z,98.69
2022-11-18T12:31:32.448Z,98.69
2022-11-18T12:32:32.430Z,98.79
2022-11-18T12:33:32.445Z,98.79
2022-11-18T12:34:32.424Z,98.79
2022-11-18T12:35:32.417Z,98.69
2022-11-18T12:36:32.380Z,98.79
2022-11-18T12:37:32.387Z,98.79
2022-11-18T12:38:32.380Z,98.90
2022-11-18T12:39:32.350Z,98.79
2022-11-18T12:40:32.352Z,98.96
2022-11-18T12:41:32.330Z,98.85
2022-11-18T12:42:32.324Z,98.75
2022-11-18T12:43:33.323Z,98.65
2022-11-18T12:44:32.290Z,98.65
2022-11-18T12:45:32.301Z,98.33
2022-11-18T12:46:32.320Z,98.44
2022-11-18T12:47:32.411Z,98.44
2022-11-18T12:48:32.339Z,98.24
2022-11-18T12:49:33.273Z,98.13
2022-11-18T12:50:32.280Z,98.24
2022-11-18T12:51:32.282Z,98.24
2022-11-18T12:52:32.269Z,98.33
2022-11-18T12:53:32.289Z,98.28
2022-11-18T12:54:32.172Z,98.24
2022-11-18T12:55:32.216Z,98.24
2022-11-18T12:56:32.192Z,98.24
2022-11-18T12:57:32.220Z,98.33
2022-11-18T12:58:32.111Z,98.33
2022-11-18T12:59:32.113Z,98.44
2022-11-18T13:00:32.190Z,98.44
2022-11-18T13:01:32.062Z,98.44
2022-11-18T13:02:32.135Z,98.33
2022-11-18T13:03:32.134Z,98.24
2022-11-18T13:04:33.091Z,98.24
2022-11-18T13:05:32.032Z,98.24
2022-11-18T13:06:33.112Z,98.13
2022-11-18T13:07:32.187Z,98.13
2022-11-18T13:08:32.073Z,98.13
2022-11-18T13:09:32.071Z,98.13
2022-11-18T13:10:31.983Z,98.13
2022-11-18T13:11:32.066Z,98.03
2022-11-18T13:12:31.995Z,97.92
2022-11-18T13:13:32.007Z,98.03
2022-11-18T13:14:32.001Z,98.08
2022-11-18T13:15:32.955Z,98.19
2022-11-18T13:16:35.533Z,98.08
2022-11-18T13:17:32.954Z,98.13
2022-11-18T13:18:31.944Z,98.08
2022-11-18T13:19:31.952Z,97.99
2022-11-18T13:20:31.877Z,97.99
2022-11-18T13:21:31.874Z,98.03
2022-11-18T13:22:31.863Z,97.82
2022-11-18T13:23:31.808Z,97.92
2022-11-18T13:24:31.784Z,98.03
2022-11-18T13:25:31.803Z,97.72